Hauptseite
METAR-TAF:

METAR-TAF

Flughäfen :

Siegerlandflughafen

Siegen, Deutschland

Breite: 50-42-28N, Länge: 008-04-59E, Höhe: 602 m

Beobachtung

Neuester Wetterbericht von vor 25 Minuten, um 23:50 UTC
Wind 4 kt aus Süd/Südwest, variierte zwischen Süd und West/Südwest
Temperatur 1°C
Luftfeuchtigkeit 93%
Luftdruck 1035 hPa
Sichtweite 10 km oder mehr

METAR: EDGS 042350Z AUTO 21004KT 180V240 9999 // FEW029/// 01/M00 Q1035

Zeit: 01:15 (00:15 UTC)

Prognose

Neuester Wetterbericht von vor 10 Stunden und 15 Minuten, um 14:00 UTC
Gültige Prognose vom 04 um 15 UTC bis 04 um 24 UTC
Wind 3 kt aus unterschiedlichen Richtungen
Sichtweite 10 km oder mehr
Aufgelockert bewölkt in der Höhe von 1500 ft

TAF: EDGS 041400Z 0415/0424 VRB03KT 9999 SCT015

Wetterbeobachtungen und Prognosen von mehr als 4000 Flughäfen (METAR und TAF Bericht).

Die verfügbaren Stationen werden durch gelbe und rote Markierungen auf der Karte dargestellt.

Führen Sie die Maus auf sie, um den Namen der Station zu sehen.

Darauf klicken, um die Beobachtung von Wetterbeobachtungen und Prognosen zu sehen.

Um die Karte zu ändern : klicken Sie auf den grünen Tasten mit einem schwarzen Kreuz Zum Vergrößern, auf den grünen Button mit einem Gedankenstrich zu verkleinern, oder auf die grünen Pfeile für benachbarte Karten.


METAR-TAF: